createdAt,value
2023-02-26T07:18:31.999Z,98054.03
2023-02-26T07:21:00.766Z,98064.91
2023-02-26T07:23:28.193Z,98062.72
2023-02-26T07:25:56.448Z,98064.16
2023-02-26T07:28:25.024Z,98052.75
2023-02-26T07:30:56.902Z,98062.88
2023-02-26T07:33:25.064Z,98065.72
2023-02-26T07:35:52.343Z,98063.13
2023-02-26T07:38:19.903Z,98066.38
2023-02-26T07:40:47.995Z,98066.75
2023-02-26T07:43:15.296Z,98060.66
2023-02-26T07:45:42.567Z,98059.38
2023-02-26T07:48:09.864Z,98063.94
2023-02-26T07:50:37.196Z,98064.91
2023-02-26T07:53:04.531Z,98063.28
2023-02-26T07:55:31.928Z,98061.00
2023-02-26T07:57:59.196Z,98067.97
2023-02-26T08:00:26.934Z,98057.72
2023-02-26T08:02:54.357Z,98077.09
2023-02-26T08:05:21.649Z,98070.03
2023-02-26T08:07:48.913Z,98070.81
2023-02-26T08:10:16.306Z,98065.72
2023-02-26T08:12:43.594Z,98059.03
2023-02-26T08:15:14.403Z,98063.47
2023-02-26T08:17:42.354Z,98059.16
2023-02-26T08:20:12.021Z,98047.94
2023-02-26T08:22:39.637Z,98041.38
2023-02-26T08:25:07.992Z,98040.88
2023-02-26T08:27:35.348Z,98054.38
2023-02-26T08:30:05.265Z,98045.16
2023-02-26T08:32:32.582Z,98050.44
2023-02-26T08:34:59.951Z,98044.88
2023-02-26T08:37:27.313Z,98048.53
2023-02-26T08:39:54.720Z,98050.44
2023-02-26T08:42:22.010Z,98049.78
2023-02-26T08:44:49.462Z,98049.34
2023-02-26T08:47:24.542Z,98053.97
2023-02-26T08:49:55.232Z,98044.94
2023-02-26T08:52:23.185Z,98051.53
2023-02-26T08:54:50.801Z,98051.69
2023-02-26T08:57:18.475Z,98049.88
2023-02-26T08:59:45.795Z,98046.28
2023-02-26T09:02:15.970Z,98047.59
2023-02-26T09:04:43.255Z,98053.06
2023-02-26T09:07:10.686Z,98038.75
2023-02-26T09:09:37.996Z,98045.22
2023-02-26T09:12:05.841Z,98044.84
2023-02-26T09:14:33.149Z,98055.38
2023-02-26T09:17:00.495Z,98053.28
2023-02-26T09:19:27.825Z,98053.03
2023-02-26T09:21:55.941Z,98053.25
2023-02-26T09:24:23.541Z,98047.63
2023-02-26T09:26:50.891Z,98051.41
2023-02-26T09:29:18.189Z,98051.53
2023-02-26T09:31:45.652Z,98055.91
2023-02-26T09:34:13.756Z,98055.56
2023-02-26T09:36:41.257Z,98065.78
2023-02-26T09:39:08.879Z,98049.53
2023-02-26T09:41:54.630Z,98055.56
2023-02-26T09:44:30.531Z,98056.53
2023-02-26T09:47:45.592Z,98060.56
2023-02-26T09:50:28.413Z,98056.66
2023-02-26T09:53:19.569Z,98073.69
2023-02-26T09:55:50.794Z,98075.03
2023-02-26T09:58:39.273Z,98071.56
2023-02-26T10:02:10.392Z,98075.09
2023-02-26T10:05:15.137Z,98081.06
2023-02-26T10:08:14.396Z,98081.66
2023-02-26T10:11:29.311Z,98071.19
2023-02-26T10:15:13.335Z,98083.78
2023-02-26T10:18:18.190Z,98067.09
2023-02-26T10:20:57.990Z,98090.41
2023-02-26T10:24:03.853Z,98095.66
2023-02-26T10:26:50.103Z,98096.66
2023-02-26T10:29:37.776Z,98087.88
2023-02-26T10:32:43.313Z,98082.91
2023-02-26T10:35:17.791Z,98076.19
2023-02-26T10:38:18.033Z,98081.78
2023-02-26T10:41:13.410Z,98083.59
2023-02-26T10:44:33.535Z,98098.13
2023-02-26T10:47:32.487Z,98106.38
2023-02-26T10:50:17.853Z,98101.34
2023-02-26T10:52:47.641Z,98105.19
2023-02-26T10:56:01.855Z,98101.50
2023-02-26T10:58:29.196Z,98101.97
2023-02-26T11:00:57.767Z,98106.63
2023-02-26T11:03:56.481Z,98093.34
2023-02-26T11:06:45.611Z,98104.91
2023-02-26T11:09:45.454Z,98115.59
2023-02-26T11:12:15.724Z,98111.09
2023-02-26T11:14:45.598Z,98114.84
2023-02-26T11:17:32.354Z,98113.09
2023-02-26T11:20:15.352Z,98121.22
2023-02-26T11:22:53.463Z,98117.06
2023-02-26T11:25:28.002Z,98115.94
2023-02-26T11:28:30.107Z,98112.75
2023-02-26T11:31:00.622Z,98110.84
2023-02-26T11:33:38.776Z,98114.41
2023-02-26T11:36:20.076Z,98119.34
2023-02-26T11:39:04.321Z,98104.44
2023-02-26T11:41:39.536Z,98105.44
2023-02-26T11:44:32.185Z,98115.53
2023-02-26T11:47:03.163Z,98106.28
2023-02-26T11:49:30.636Z,98099.69
2023-02-26T11:52:35.854Z,98122.03
2023-02-26T11:55:40.030Z,98097.91
2023-02-26T11:58:24.215Z,98114.31
2023-02-26T12:00:58.496Z,98108.75
2023-02-26T12:03:40.946Z,98107.63
2023-02-26T12:06:21.163Z,98100.91
2023-02-26T12:08:49.091Z,98111.63
2023-02-26T12:12:22.313Z,98104.38
2023-02-26T12:15:36.247Z,98092.63
2023-02-26T12:18:51.093Z,98096.53
2023-02-26T12:22:00.710Z,98105.94
2023-02-26T12:25:09.228Z,98104.00
2023-02-26T12:28:28.746Z,98083.94
2023-02-26T12:31:54.411Z,98093.78
2023-02-26T12:35:26.517Z,98092.75
2023-02-26T12:38:35.004Z,98085.44
2023-02-26T12:41:43.062Z,98085.53
2023-02-26T12:46:06.244Z,98092.31
2023-02-26T12:49:30.394Z,98093.16
2023-02-26T12:53:00.818Z,98088.38
2023-02-26T12:56:44.825Z,98067.38
2023-02-26T13:00:16.102Z,98096.09
2023-02-26T13:03:50.182Z,98090.78
2023-02-26T13:07:24.140Z,98103.34
2023-02-26T13:10:24.284Z,98097.13
2023-02-26T13:13:24.901Z,98099.34
2023-02-26T13:17:20.799Z,98100.28
2023-02-26T13:20:00.548Z,98110.53
2023-02-26T13:22:50.136Z,98105.75
2023-02-26T13:25:50.713Z,98106.47
2023-02-26T13:28:40.136Z,98110.69
2023-02-26T13:31:53.386Z,98102.03
2023-02-26T13:35:00.966Z,98120.69
2023-02-26T13:37:42.321Z,98114.50
2023-02-26T13:40:50.193Z,98117.00
2023-02-26T13:44:27.495Z,98122.56
2023-02-26T13:47:42.799Z,98135.53
2023-02-26T13:51:22.341Z,98124.34
2023-02-26T13:54:00.820Z,98128.84
2023-02-26T13:56:34.040Z,98135.22
2023-02-26T13:59:46.859Z,98137.88
2023-02-26T14:02:19.944Z,98144.38
2023-02-26T14:05:00.228Z,98156.25
2023-02-26T14:08:01.024Z,98154.34
2023-02-26T14:10:49.741Z,98147.97
2023-02-26T14:13:42.061Z,98154.78
2023-02-26T14:16:28.821Z,98155.00
2023-02-26T14:19:33.489Z,98153.34
2023-02-26T14:22:09.373Z,98151.16
2023-02-26T14:24:44.511Z,98161.63
2023-02-26T14:27:11.548Z,98144.88
2023-02-26T14:29:57.159Z,98153.44
2023-02-26T14:33:01.454Z,98156.84
2023-02-26T14:35:35.598Z,98139.97
2023-02-26T14:38:36.509Z,98127.19
2023-02-26T14:41:30.031Z,98137.91
2023-02-26T14:44:21.823Z,98161.94
2023-02-26T14:46:51.525Z,98152.72
2023-02-26T14:49:38.398Z,98144.78
2023-02-26T14:53:03.230Z,98168.84
2023-02-26T14:56:27.125Z,98165.44
2023-02-26T15:00:10.795Z,98157.66
2023-02-26T15:03:20.991Z,98162.94
2023-02-26T15:06:34.097Z,98172.81
2023-02-26T15:09:25.640Z,98168.28
2023-02-26T15:13:03.808Z,98180.88
2023-02-26T15:16:38.139Z,98174.38
2023-02-26T15:19:46.635Z,98188.38
2023-02-26T15:23:24.999Z,98192.75
2023-02-26T15:25:52.620Z,98180.09
2023-02-26T15:28:42.065Z,98182.44
2023-02-26T15:31:13.743Z,98175.72
2023-02-26T15:33:42.473Z,98174.84
2023-02-26T15:36:18.816Z,98186.50
2023-02-26T15:39:00.140Z,98196.34
2023-02-26T15:41:31.942Z,98196.13
2023-02-26T15:44:18.923Z,98211.13
2023-02-26T15:46:54.572Z,98198.44
2023-02-26T15:49:41.021Z,98199.94
2023-02-26T15:52:20.599Z,98198.09
2023-02-26T15:55:05.806Z,98211.16
2023-02-26T15:57:33.375Z,98222.22
2023-02-26T16:00:18.042Z,98220.47
2023-02-26T16:02:45.781Z,98210.75
2023-02-26T16:05:17.021Z,98214.72
2023-02-26T16:07:44.355Z,98210.56
2023-02-26T16:10:40.639Z,98221.56
2023-02-26T16:13:18.068Z,98224.50
2023-02-26T16:15:47.458Z,98227.06
2023-02-26T16:18:24.189Z,98222.75
2023-02-26T16:20:58.963Z,98215.69
2023-02-26T16:23:50.894Z,98221.72
2023-02-26T16:26:47.023Z,98227.50
2023-02-26T16:29:29.961Z,98215.19
2023-02-26T16:32:02.308Z,98225.44
2023-02-26T16:34:55.707Z,98226.53
2023-02-26T16:37:37.773Z,98232.28
2023-02-26T16:40:35.682Z,98238.72
2023-02-26T16:43:49.506Z,98248.97
2023-02-26T16:46:43.867Z,98237.91
2023-02-26T16:49:31.615Z,98253.16
2023-02-26T16:52:00.830Z,98271.94
2023-02-26T16:54:43.154Z,98283.16
2023-02-26T16:57:46.123Z,98278.81
2023-02-26T17:00:31.603Z,98284.25
2023-02-26T17:03:23.857Z,98280.91
2023-02-26T17:06:20.395Z,98286.19
2023-02-26T17:08:59.840Z,98291.31
2023-02-26T17:11:43.456Z,98275.94
2023-02-26T17:14:25.792Z,98288.41
2023-02-26T17:16:53.499Z,98278.78
2023-02-26T17:19:21.182Z,98298.34
2023-02-26T17:21:54.775Z,98295.97
2023-02-26T17:24:34.835Z,98286.19
2023-02-26T17:27:05.487Z,98291.19
2023-02-26T17:29:37.583Z,98294.38
2023-02-26T17:32:16.027Z,98291.78
2023-02-26T17:34:44.835Z,98301.13
2023-02-26T17:37:16.717Z,98313.75
2023-02-26T17:39:45.441Z,98310.06
2023-02-26T17:42:21.436Z,98302.88
2023-02-26T17:44:50.366Z,98318.25
2023-02-26T17:47:25.862Z,98312.97
2023-02-26T17:49:54.246Z,98298.88
2023-02-26T17:52:21.642Z,98321.94
2023-02-26T17:54:49.037Z,98317.59
2023-02-26T17:57:22.082Z,98319.03
2023-02-26T17:59:49.508Z,98317.78
2023-02-26T18:02:27.216Z,98319.03
2023-02-26T18:04:54.923Z,98324.31
2023-02-26T18:07:23.971Z,98327.88
2023-02-26T18:09:51.381Z,98330.41
2023-02-26T18:12:22.435Z,98346.84
2023-02-26T18:14:50.243Z,98346.09
2023-02-26T18:17:31.124Z,98358.41
2023-02-26T18:19:58.650Z,98352.19
2023-02-26T18:22:27.661Z,98352.66
2023-02-26T18:24:55.878Z,98350.06
2023-02-26T18:27:26.316Z,98348.81
2023-02-26T18:29:54.559Z,98355.50
2023-02-26T18:32:25.376Z,98362.44
2023-02-26T18:34:52.875Z,98364.97
2023-02-26T18:37:27.055Z,98357.63
2023-02-26T18:39:55.792Z,98351.22
2023-02-26T18:42:28.430Z,98354.78
2023-02-26T18:44:56.130Z,98359.88
2023-02-26T18:47:23.684Z,98371.75
2023-02-26T18:49:52.005Z,98374.28
2023-02-26T18:52:19.642Z,98368.59
2023-02-26T18:54:46.947Z,98361.19
2023-02-26T18:57:15.254Z,98362.13
2023-02-26T18:59:42.971Z,98361.66
2023-02-26T19:02:14.034Z,98366.13
2023-02-26T19:04:42.372Z,98365.16
2023-02-26T19:07:10.139Z,98362.28
2023-02-26T19:09:37.560Z,98381.03
2023-02-26T19:12:05.795Z,98363.97
2023-02-26T19:14:33.878Z,98363.66
2023-02-26T19:17:01.485Z,98372.19
2023-02-26T19:19:29.037Z,98386.88
2023-02-26T19:21:57.761Z,98379.09
2023-02-26T19:24:25.062Z,98376.34
2023-02-26T19:26:52.500Z,98379.28
2023-02-26T19:29:20.797Z,98388.69
2023-02-26T19:31:48.305Z,98380.06
2023-02-26T19:34:16.211Z,98391.78
2023-02-26T19:36:48.147Z,98387.09
2023-02-26T19:39:21.395Z,98396.34
2023-02-26T19:41:50.452Z,98382.13
2023-02-26T19:44:18.104Z,98389.38
2023-02-26T19:46:45.533Z,98378.22
2023-02-26T19:49:13.607Z,98399.44
2023-02-26T19:51:41.435Z,98401.31
2023-02-26T19:54:09.814Z,98392.38
2023-02-26T19:56:37.283Z,98395.78
2023-02-26T19:59:04.701Z,98392.00
2023-02-26T20:01:32.301Z,98400.25
2023-02-26T20:04:00.932Z,98392.09
2023-02-26T20:06:28.850Z,98410.44
2023-02-26T20:08:56.287Z,98415.97
2023-02-26T20:11:23.669Z,98402.50
2023-02-26T20:13:51.081Z,98419.13
2023-02-26T20:16:18.504Z,98403.66
2023-02-26T20:18:45.974Z,98414.09
2023-02-26T20:21:14.118Z,98404.03
2023-02-26T20:23:41.879Z,98404.88
2023-02-26T20:26:15.080Z,98415.97
2023-02-26T20:28:43.136Z,98404.09
2023-02-26T20:31:11.568Z,98407.22
2023-02-26T20:33:39.592Z,98415.47
2023-02-26T20:36:09.611Z,98403.28
2023-02-26T20:38:37.806Z,98407.47
2023-02-26T20:41:05.912Z,98400.09
2023-02-26T20:43:33.611Z,98394.84
2023-02-26T20:46:02.190Z,98402.84
2023-02-26T20:48:29.717Z,98420.31
2023-02-26T20:51:05.871Z,98405.34
2023-02-26T20:53:33.418Z,98408.44
2023-02-26T20:56:00.991Z,98425.81
2023-02-26T20:58:28.739Z,98416.44
2023-02-26T21:00:56.955Z,98412.50
2023-02-26T21:03:25.114Z,98418.78
2023-02-26T21:05:52.816Z,98424.25
2023-02-26T21:08:20.431Z,98433.47
2023-02-26T21:10:51.992Z,98428.25
2023-02-26T21:13:19.981Z,98423.59
2023-02-26T21:15:50.204Z,98443.00
2023-02-26T21:18:17.550Z,98439.09
2023-02-26T21:20:44.847Z,98428.97
2023-02-26T21:23:12.399Z,98421.63
2023-02-26T21:25:40.107Z,98436.81
2023-02-26T21:28:07.456Z,98430.03
2023-02-26T21:30:35.863Z,98433.06
2023-02-26T21:33:03.521Z,98428.06
2023-02-26T21:35:31.017Z,98429.00
2023-02-26T21:37:58.382Z,98429.56
2023-02-26T21:40:26.618Z,98429.28
